createdAt,value
2022-12-16T00:01:27.561Z,77.09
2022-12-16T00:03:57.338Z,76.36
2022-12-16T00:06:30.321Z,76.86
2022-12-16T00:08:58.292Z,76.01
2022-12-16T00:11:26.182Z,76.73
2022-12-16T00:13:55.108Z,75.91
2022-12-16T00:16:23.539Z,76.40
2022-12-16T00:18:51.955Z,76.36
2022-12-16T00:21:21.037Z,77.36
2022-12-16T00:23:50.320Z,77.00
2022-12-16T00:26:18.170Z,76.73
2022-12-16T00:28:46.037Z,77.13
2022-12-16T00:31:14.023Z,76.48
2022-12-16T00:33:42.154Z,76.24
2022-12-16T00:36:10.956Z,77.27
2022-12-16T00:38:39.398Z,77.30
2022-12-16T00:41:09.574Z,77.51
2022-12-16T00:43:37.457Z,76.80
2022-12-16T00:46:05.379Z,76.96
2022-12-16T00:48:34.491Z,76.38
2022-12-16T00:51:02.466Z,76.78
2022-12-16T00:53:30.768Z,76.94
2022-12-16T00:56:09.437Z,76.41
2022-12-16T00:58:37.968Z,76.80
2022-12-16T01:01:06.946Z,77.18
2022-12-16T01:03:35.647Z,77.30
2022-12-16T01:06:09.560Z,77.32
2022-12-16T01:08:37.583Z,77.30
2022-12-16T01:11:05.902Z,77.92
2022-12-16T01:13:35.732Z,78.23
2022-12-16T01:16:04.067Z,77.17
2022-12-16T01:18:31.969Z,76.38
2022-12-16T01:21:04.036Z,76.40
2022-12-16T01:23:32.453Z,76.36
2022-12-16T01:26:01.988Z,75.54
2022-12-16T01:28:30.256Z,75.70
2022-12-16T01:31:02.039Z,76.10
2022-12-16T01:33:31.280Z,77.04
2022-12-16T01:36:04.513Z,76.20
2022-12-16T01:38:32.602Z,76.39
2022-12-16T01:41:00.557Z,76.13
2022-12-16T01:43:31.198Z,76.19
2022-12-16T01:46:06.670Z,76.17
2022-12-16T01:48:45.055Z,75.74
2022-12-16T01:51:19.885Z,76.38
2022-12-16T01:53:49.176Z,76.71
2022-12-16T01:56:21.949Z,76.09
2022-12-16T01:58:50.792Z,76.68
2022-12-16T02:01:20.888Z,76.31
2022-12-16T02:03:50.252Z,76.99
2022-12-16T02:06:18.498Z,76.80
2022-12-16T02:08:46.332Z,76.22
2022-12-16T02:11:38.552Z,76.53
2022-12-16T02:14:26.568Z,76.23
2022-12-16T02:17:01.471Z,76.50
2022-12-16T02:20:06.637Z,76.36
2022-12-16T02:22:48.348Z,76.01
2022-12-16T02:25:35.727Z,76.00
2022-12-16T02:28:09.987Z,75.58
2022-12-16T02:31:08.894Z,75.38
2022-12-16T02:33:51.629Z,74.27
2022-12-16T02:36:31.588Z,74.91
2022-12-16T02:39:03.629Z,72.19
2022-12-16T02:41:42.790Z,72.28
2022-12-16T02:44:12.587Z,72.22
2022-12-16T02:46:44.700Z,73.56
2022-12-16T02:49:46.359Z,72.28
2022-12-16T02:52:16.118Z,73.53
2022-12-16T02:54:45.158Z,74.35
2022-12-16T02:57:27.934Z,74.02
2022-12-16T03:00:01.922Z,71.13
2022-12-16T03:02:37.928Z,71.68
2022-12-16T03:05:12.053Z,68.56
2022-12-16T03:07:42.231Z,69.67
2022-12-16T03:10:15.914Z,69.95
2022-12-16T03:12:46.770Z,69.38
2022-12-16T03:15:17.355Z,68.55
2022-12-16T03:17:49.271Z,66.89
2022-12-16T03:20:24.224Z,67.11
2022-12-16T03:22:53.820Z,65.78
2022-12-16T03:25:24.188Z,66.73
2022-12-16T03:27:59.068Z,67.56
2022-12-16T03:30:30.165Z,68.09
2022-12-16T03:33:03.962Z,67.99
2022-12-16T03:35:39.032Z,68.13
2022-12-16T03:38:10.237Z,69.28
2022-12-16T03:40:40.601Z,69.62
2022-12-16T03:43:11.573Z,70.09
2022-12-16T03:45:41.837Z,70.02
2022-12-16T03:48:13.317Z,69.63
2022-12-16T03:50:41.774Z,69.74
2022-12-16T03:53:09.880Z,70.36
2022-12-16T03:55:37.712Z,70.21
2022-12-16T03:58:05.615Z,71.02
2022-12-16T04:00:33.518Z,70.17
2022-12-16T04:03:01.557Z,70.17
2022-12-16T04:05:30.878Z,69.92
2022-12-16T04:08:01.835Z,69.69
2022-12-16T04:10:47.874Z,70.15
2022-12-16T04:13:33.385Z,70.17
2022-12-16T04:16:19.434Z,69.86
2022-12-16T04:19:08.103Z,68.57
2022-12-16T04:21:55.971Z,68.63
2022-12-16T04:24:31.580Z,70.06
2022-12-16T04:27:16.865Z,69.63
2022-12-16T04:30:04.349Z,68.89
2022-12-16T04:32:53.320Z,70.04
2022-12-16T04:35:39.571Z,69.79
2022-12-16T04:38:26.540Z,70.32
2022-12-16T04:41:12.090Z,70.44
2022-12-16T04:43:58.006Z,71.21
2022-12-16T04:46:43.504Z,71.28
2022-12-16T04:49:28.970Z,71.70
2022-12-16T04:52:14.586Z,71.68
2022-12-16T04:55:01.275Z,71.91
2022-12-16T04:57:43.286Z,72.50
2022-12-16T05:00:37.975Z,71.92
2022-12-16T05:03:23.293Z,70.85
2022-12-16T05:06:08.559Z,71.78
2022-12-16T05:08:54.240Z,72.06
2022-12-16T05:11:41.229Z,72.83
2022-12-16T05:14:26.862Z,72.84
2022-12-16T05:17:12.175Z,72.48
2022-12-16T05:19:57.462Z,72.49
2022-12-16T05:22:42.891Z,72.80
2022-12-16T05:25:28.604Z,73.24
2022-12-16T05:28:15.360Z,73.40
2022-12-16T05:31:00.895Z,73.45
2022-12-16T05:33:46.445Z,73.18
2022-12-16T05:36:43.097Z,73.53
2022-12-16T05:39:28.906Z,74.64
2022-12-16T05:42:14.266Z,74.47
2022-12-16T05:45:01.125Z,74.12
2022-12-16T05:47:46.677Z,74.56
2022-12-16T05:50:31.889Z,74.82
2022-12-16T05:53:17.176Z,74.18
2022-12-16T05:56:02.920Z,74.48
2022-12-16T05:58:48.603Z,74.55
2022-12-16T06:01:35.516Z,74.90
2022-12-16T06:04:21.205Z,74.87
2022-12-16T06:07:06.891Z,75.57
2022-12-16T06:09:56.602Z,75.96
2022-12-16T06:12:42.499Z,75.01
2022-12-16T06:15:29.206Z,75.04
2022-12-16T06:18:15.907Z,75.40
2022-12-16T06:21:02.070Z,75.34
2022-12-16T06:23:47.393Z,75.78
2022-12-16T06:26:32.977Z,75.30
2022-12-16T06:29:18.261Z,75.52
2022-12-16T06:32:03.663Z,74.94
2022-12-16T06:34:50.893Z,75.60
2022-12-16T06:37:36.382Z,75.55
2022-12-16T06:40:21.901Z,76.12
2022-12-16T06:43:07.388Z,76.01
2022-12-16T06:45:52.819Z,75.93
2022-12-16T06:48:38.384Z,75.83
2022-12-16T06:51:33.379Z,75.53
2022-12-16T06:54:18.573Z,75.96
2022-12-16T06:57:03.802Z,76.18
2022-12-16T06:59:49.361Z,75.73
2022-12-16T07:02:34.993Z,75.62
2022-12-16T07:05:20.457Z,75.71
2022-12-16T07:08:08.628Z,76.42
2022-12-16T07:10:55.274Z,76.39
2022-12-16T07:13:42.188Z,77.17
2022-12-16T07:16:27.384Z,76.60
2022-12-16T07:19:13.018Z,76.19
2022-12-16T07:21:58.493Z,76.85
2022-12-16T07:24:45.312Z,76.90
2022-12-16T07:27:30.455Z,76.56
2022-12-16T07:30:16.087Z,75.67
2022-12-16T07:33:01.477Z,76.19
2022-12-16T07:35:46.733Z,75.25
2022-12-16T07:38:31.969Z,75.88
2022-12-16T07:41:18.713Z,76.04
2022-12-16T07:44:00.437Z,75.93
2022-12-16T07:46:47.843Z,76.45
2022-12-16T07:49:33.236Z,76.28
2022-12-16T07:52:18.547Z,76.80
2022-12-16T07:55:03.726Z,76.29
2022-12-16T07:57:50.177Z,76.25
2022-12-16T08:00:36.184Z,76.40
2022-12-16T08:03:23.184Z,75.26
2022-12-16T08:06:08.805Z,75.25
2022-12-16T08:08:54.175Z,75.08
2022-12-16T08:11:39.740Z,75.16
2022-12-16T08:14:26.412Z,75.01
2022-12-16T08:17:11.732Z,75.33
2022-12-16T08:19:57.439Z,74.86
2022-12-16T08:22:42.619Z,75.20
2022-12-16T08:25:33.404Z,75.03
2022-12-16T08:28:18.930Z,74.75
2022-12-16T08:31:09.672Z,74.26
2022-12-16T08:33:55.574Z,73.87
2022-12-16T08:36:41.135Z,74.22
2022-12-16T08:39:26.769Z,73.65
2022-12-16T08:42:12.191Z,74.04
2022-12-16T08:44:57.793Z,73.57
2022-12-16T08:47:44.587Z,74.13
2022-12-16T08:50:30.093Z,74.16
2022-12-16T08:53:15.665Z,73.33
2022-12-16T08:56:01.986Z,73.52
2022-12-16T08:58:47.414Z,73.79
2022-12-16T09:01:33.131Z,73.84
2022-12-16T09:04:19.693Z,73.31
2022-12-16T09:07:05.702Z,72.30
2022-12-16T09:09:52.398Z,72.11
2022-12-16T09:12:37.631Z,72.18
2022-12-16T09:15:23.450Z,72.56
2022-12-16T09:18:12.811Z,72.26
2022-12-16T09:20:59.716Z,71.89
2022-12-16T09:23:45.427Z,72.37
2022-12-16T09:26:27.263Z,71.28
2022-12-16T09:29:12.532Z,71.04
2022-12-16T09:31:57.663Z,71.16
2022-12-16T09:34:42.266Z,69.65
2022-12-16T09:37:29.398Z,70.23
2022-12-16T09:40:15.026Z,69.57
2022-12-16T09:43:07.853Z,68.58
2022-12-16T09:46:04.203Z,68.46
2022-12-16T09:48:58.086Z,67.96
2022-12-16T09:51:44.693Z,66.50
2022-12-16T09:54:35.444Z,64.59
2022-12-16T09:57:23.619Z,64.37
2022-12-16T10:00:16.147Z,65.71
2022-12-16T10:03:06.914Z,66.57
2022-12-16T10:06:02.952Z,66.14
2022-12-16T10:08:57.617Z,66.04
2022-12-16T10:11:56.764Z,65.80
2022-12-16T10:14:50.236Z,64.96
2022-12-16T10:17:42.340Z,63.96
2022-12-16T10:20:39.727Z,63.18
2022-12-16T10:23:36.087Z,62.76
2022-12-16T10:26:27.060Z,62.08
2022-12-16T10:29:22.360Z,62.06
2022-12-16T10:32:08.104Z,62.92
2022-12-16T10:34:56.292Z,62.73
2022-12-16T10:37:51.122Z,62.34
2022-12-16T10:40:40.618Z,61.98
2022-12-16T10:43:32.107Z,61.06
2022-12-16T10:46:24.574Z,60.88
2022-12-16T10:49:09.954Z,59.61
2022-12-16T10:51:55.412Z,58.83
2022-12-16T10:54:58.616Z,58.31
2022-12-16T10:57:53.939Z,59.98
2022-12-16T11:00:56.900Z,60.02
2022-12-16T11:03:46.328Z,59.56
2022-12-16T11:06:36.340Z,59.19
2022-12-16T11:09:40.402Z,59.02
2022-12-16T11:12:44.002Z,59.52
2022-12-16T11:15:45.132Z,59.40
2022-12-16T11:18:32.837Z,59.24
2022-12-16T11:21:34.726Z,59.09
2022-12-16T11:24:31.740Z,59.86
2022-12-16T11:27:19.093Z,61.23
2022-12-16T11:30:15.929Z,59.36
2022-12-16T11:33:05.436Z,58.63
2022-12-16T11:35:53.525Z,59.11
2022-12-16T11:38:51.150Z,57.09
2022-12-16T11:41:43.310Z,56.71
2022-12-16T11:44:37.159Z,55.40
2022-12-16T11:47:31.514Z,55.13
2022-12-16T11:50:17.628Z,55.05
2022-12-16T11:53:14.991Z,55.97
2022-12-16T11:56:11.150Z,57.42
2022-12-16T11:59:03.512Z,56.45
2022-12-16T12:01:55.638Z,56.40
2022-12-16T12:04:44.415Z,57.10
2022-12-16T12:07:45.710Z,56.93
2022-12-16T12:11:08.250Z,57.45
2022-12-16T12:14:16.006Z,57.77
2022-12-16T12:17:15.082Z,58.56
2022-12-16T12:20:10.792Z,57.18
2022-12-16T12:22:57.902Z,57.69
2022-12-16T12:25:51.543Z,57.59
2022-12-16T12:28:52.766Z,57.19
2022-12-16T12:32:03.422Z,59.42
2022-12-16T12:34:55.293Z,56.54
2022-12-16T12:37:47.226Z,56.88
2022-12-16T12:40:45.124Z,56.14
2022-12-16T12:43:43.223Z,55.39
2022-12-16T12:46:37.882Z,56.30
2022-12-16T12:49:30.441Z,56.48
2022-12-16T12:52:25.625Z,55.65
2022-12-16T12:55:16.355Z,56.40
2022-12-16T12:58:03.920Z,56.46
2022-12-16T13:00:55.946Z,55.85
2022-12-16T13:04:03.155Z,55.99
2022-12-16T13:06:49.000Z,58.08
2022-12-16T13:09:48.506Z,57.14
2022-12-16T13:12:45.726Z,55.53
2022-12-16T13:15:39.592Z,56.41
2022-12-16T13:18:39.783Z,56.46
2022-12-16T13:22:06.766Z,56.81
2022-12-16T13:24:57.671Z,56.47
2022-12-16T13:27:45.386Z,58.85
2022-12-16T13:30:41.285Z,57.73
2022-12-16T13:33:41.697Z,58.53
2022-12-16T13:36:29.242Z,58.36
2022-12-16T13:39:25.368Z,58.68
2022-12-16T13:42:18.316Z,58.70
2022-12-16T13:45:24.017Z,57.88
2022-12-16T13:48:24.178Z,57.44
2022-12-16T13:51:18.611Z,58.67
2022-12-16T13:54:09.278Z,58.14
2022-12-16T13:57:00.775Z,58.50
2022-12-16T14:00:04.251Z,58.42
2022-12-16T14:02:55.028Z,57.85
2022-12-16T14:05:54.806Z,57.25
2022-12-16T14:08:43.052Z,58.44
2022-12-16T14:11:38.430Z,58.24
2022-12-16T14:14:33.434Z,58.44
2022-12-16T14:17:21.353Z,58.22
2022-12-16T14:20:15.346Z,58.66
2022-12-16T14:23:32.447Z,58.93
2022-12-16T14:26:18.978Z,59.07
2022-12-16T14:29:06.317Z,57.98
2022-12-16T14:31:57.602Z,58.59
2022-12-16T14:34:44.124Z,58.12
2022-12-16T14:37:33.171Z,59.01
2022-12-16T14:40:18.647Z,59.63
2022-12-16T14:43:08.472Z,58.92
2022-12-16T14:45:58.104Z,59.87
2022-12-16T14:48:50.593Z,60.32
2022-12-16T14:51:43.116Z,60.72
2022-12-16T14:54:35.253Z,61.38
2022-12-16T14:57:20.765Z,61.53
2022-12-16T15:00:11.353Z,62.15
2022-12-16T15:03:01.211Z,61.71
2022-12-16T15:05:53.503Z,62.86
2022-12-16T15:08:39.732Z,62.21
2022-12-16T15:11:29.569Z,62.87
2022-12-16T15:14:18.797Z,63.34
2022-12-16T15:17:07.052Z,62.03
2022-12-16T15:20:03.587Z,61.97
2022-12-16T15:22:51.433Z,62.55
2022-12-16T15:25:42.544Z,62.90
2022-12-16T15:28:43.300Z,62.67
2022-12-16T15:31:33.910Z,63.30
2022-12-16T15:34:55.877Z,63.46
2022-12-16T15:37:44.179Z,64.00
2022-12-16T15:40:47.171Z,65.10
2022-12-16T15:43:48.271Z,63.86
2022-12-16T15:46:39.208Z,64.29
2022-12-16T15:49:35.130Z,65.54
2022-12-16T15:52:20.844Z,65.30
2022-12-16T15:55:12.470Z,65.51
2022-12-16T15:58:13.378Z,65.61
2022-12-16T16:00:58.977Z,65.49
2022-12-16T16:03:46.631Z,65.91
2022-12-16T16:06:36.470Z,65.57
2022-12-16T16:09:31.101Z,65.63
2022-12-16T16:12:16.682Z,66.70
2022-12-16T16:15:03.680Z,65.99
2022-12-16T16:17:48.809Z,66.87
2022-12-16T16:20:36.313Z,67.19
2022-12-16T16:23:22.088Z,67.21
2022-12-16T16:26:08.057Z,67.92
2022-12-16T16:28:52.820Z,67.80
2022-12-16T16:31:39.711Z,68.17
2022-12-16T16:34:25.291Z,68.32
2022-12-16T16:37:13.668Z,68.69
2022-12-16T16:39:59.483Z,68.87
2022-12-16T16:42:45.684Z,69.30
2022-12-16T16:45:31.632Z,69.97
2022-12-16T16:48:28.381Z,70.83
2022-12-16T16:51:15.168Z,70.30
2022-12-16T16:54:00.838Z,70.54
2022-12-16T16:57:04.029Z,70.88
2022-12-16T16:59:48.460Z,72.34
2022-12-16T17:02:40.878Z,72.06
2022-12-16T17:05:29.623Z,73.07
2022-12-16T17:08:15.576Z,72.88
2022-12-16T17:11:02.529Z,73.42
2022-12-16T17:13:47.731Z,73.47
2022-12-16T17:16:33.457Z,73.52
2022-12-16T17:19:18.679Z,74.71
2022-12-16T17:22:05.292Z,75.47
2022-12-16T17:24:53.964Z,75.66
2022-12-16T17:27:43.817Z,75.76
2022-12-16T17:30:34.410Z,75.96
2022-12-16T17:33:20.457Z,75.79
2022-12-16T17:36:07.831Z,76.08
2022-12-16T17:38:57.302Z,77.23
2022-12-16T17:41:43.193Z,77.06
2022-12-16T17:44:28.471Z,76.75
2022-12-16T17:47:14.158Z,76.61
2022-12-16T17:49:59.641Z,77.44
2022-12-16T17:52:44.928Z,78.10
2022-12-16T17:55:32.304Z,78.43
2022-12-16T17:58:17.793Z,78.77
2022-12-16T18:01:03.685Z,79.32
2022-12-16T18:03:49.371Z,79.06
2022-12-16T18:06:34.909Z,80.03
2022-12-16T18:09:20.475Z,80.18
2022-12-16T18:12:09.527Z,80.65
2022-12-16T18:14:54.673Z,80.58
2022-12-16T18:17:40.006Z,80.70
2022-12-16T18:20:26.304Z,80.84
2022-12-16T18:23:12.320Z,80.95
2022-12-16T18:25:57.932Z,81.22
2022-12-16T18:28:53.362Z,81.63
2022-12-16T18:31:39.285Z,82.42
2022-12-16T18:34:25.041Z,82.05
2022-12-16T18:37:10.445Z,82.42
2022-12-16T18:39:55.636Z,82.71
2022-12-16T18:42:41.397Z,83.23
2022-12-16T18:45:29.350Z,83.25
2022-12-16T18:48:15.161Z,83.85
2022-12-16T18:51:01.189Z,83.51
2022-12-16T18:53:47.148Z,84.29
2022-12-16T18:56:33.004Z,84.76
2022-12-16T18:59:18.748Z,84.45
2022-12-16T19:02:06.075Z,84.24
2022-12-16T19:04:51.593Z,84.52
2022-12-16T19:07:37.513Z,84.84
2022-12-16T19:10:23.592Z,85.23
2022-12-16T19:13:09.284Z,86.11
2022-12-16T19:15:54.564Z,86.39
2022-12-16T19:18:41.324Z,87.12
2022-12-16T19:21:28.565Z,86.53
2022-12-16T19:24:14.103Z,85.45
2022-12-16T19:26:59.578Z,85.64
2022-12-16T19:29:45.883Z,86.53
2022-12-16T19:32:31.494Z,86.04
2022-12-16T19:35:18.651Z,87.06
2022-12-16T19:38:04.883Z,87.23
2022-12-16T19:40:50.492Z,87.45
2022-12-16T19:43:35.939Z,87.30
2022-12-16T19:46:24.938Z,86.78
2022-12-16T19:49:10.576Z,86.54
2022-12-16T19:51:57.381Z,87.19
2022-12-16T19:54:43.072Z,87.44
2022-12-16T19:57:28.596Z,87.69
2022-12-16T20:00:18.541Z,87.74
2022-12-16T20:03:04.506Z,88.88
2022-12-16T20:05:50.311Z,88.08
2022-12-16T20:08:37.472Z,89.02
2022-12-16T20:11:27.608Z,90.42
2022-12-16T20:14:18.715Z,90.47
2022-12-16T20:17:04.381Z,90.68
2022-12-16T20:19:49.593Z,90.23
2022-12-16T20:22:34.049Z,89.89
2022-12-16T20:25:20.744Z,89.26
2022-12-16T20:28:05.949Z,90.33
2022-12-16T20:30:57.008Z,90.36
2022-12-16T20:33:42.678Z,90.46
2022-12-16T20:36:28.650Z,90.49
2022-12-16T20:39:14.166Z,90.72
2022-12-16T20:42:00.909Z,91.16
2022-12-16T20:44:46.650Z,91.42
2022-12-16T20:47:32.100Z,92.53
2022-12-16T20:50:17.431Z,92.84
2022-12-16T20:53:03.413Z,92.72
2022-12-16T20:55:48.455Z,93.12
2022-12-16T20:58:37.527Z,92.64
2022-12-16T21:01:23.723Z,93.31
2022-12-16T21:04:09.610Z,93.52
2022-12-16T21:06:56.086Z,93.50
2022-12-16T21:09:43.858Z,93.06
2022-12-16T21:12:40.421Z,93.13
2022-12-16T21:15:36.557Z,92.90
2022-12-16T21:18:24.369Z,92.70
2022-12-16T21:21:11.123Z,92.78
2022-12-16T21:23:56.780Z,92.86
2022-12-16T21:26:41.926Z,93.79
2022-12-16T21:29:27.799Z,94.12
2022-12-16T21:32:14.806Z,94.19
2022-12-16T21:35:00.405Z,93.91
2022-12-16T21:37:42.145Z,94.36
2022-12-16T21:40:28.541Z,95.23
